Portada
METAR-TAF:

METAR-TAF

Aeroports :

Maragha, Iran

latitud: 37-20-55N, longitud: 046-07-35E, altitud: 1340 m

Observació

L'informe es va fer fa 1 hora i 13 minuts, a les 05:00 UTC
Vent 16 kt del Est
Temperatura 27°C
Humitat 23%
Pressió 1015 hPa
Visibilitat 10 km o més
sense núvols per sota de 1500 mi sense presència de cumulonimbus.

METAR: OITM 220500Z 10016KT CAVOK 27/04 Q1015

Hora: 10:43 (06:13 UTC)


TAF: manca

Observacions i pronòstics meteorològics de més de 4000 aeroports (METAR i TAF).

Les estacions disponibles són els punts grocs i vermells al mapa.

Posi el ratolí al punt desitjat per veure el nom de l'estació.

Feu clic per veure les observacions i els pronòstics meteorològics.

Per canviar el mapa: feu clic els botons verds amb una creu de color negre per apropar; al botó verd amb un guió per allunyar la imatge; o en les fletxes verdes per a mapes adjacents.


METAR-TAF: